createdAt,value
2023-03-11T00:00:39.259Z,96669.03
2023-03-11T00:03:09.133Z,96664.84
2023-03-11T00:05:40.531Z,96671.16
2023-03-11T00:08:11.554Z,96659.34
2023-03-11T00:10:41.748Z,96670.19
2023-03-11T00:13:12.078Z,96688.19
2023-03-11T00:15:40.515Z,96693.69
2023-03-11T00:18:08.173Z,96684.47
2023-03-11T00:20:39.112Z,96684.88
2023-03-11T00:23:08.200Z,96695.66
2023-03-11T00:25:37.523Z,96714.78
2023-03-11T00:28:07.366Z,96704.97
2023-03-11T00:30:35.257Z,96703.31
2023-03-11T00:33:02.425Z,96708.34
2023-03-11T00:35:32.587Z,96691.44
2023-03-11T00:38:06.763Z,96697.66
2023-03-11T00:40:36.135Z,96703.06
2023-03-11T00:43:04.210Z,96700.78
2023-03-11T00:45:32.186Z,96705.94
2023-03-11T00:47:59.635Z,96714.56
2023-03-11T00:50:31.013Z,96725.53
2023-03-11T00:52:58.369Z,96711.16
2023-03-11T00:55:32.816Z,96726.63
2023-03-11T00:58:05.066Z,96715.44
2023-03-11T01:00:39.185Z,96723.28
2023-03-11T01:03:06.532Z,96732.69
2023-03-11T01:05:34.515Z,96733.78
2023-03-11T01:08:03.706Z,96738.06
2023-03-11T01:10:33.012Z,96740.56
2023-03-11T01:13:00.518Z,96737.63
2023-03-11T01:15:31.749Z,96738.09
2023-03-11T01:17:59.572Z,96744.34
2023-03-11T01:20:27.049Z,96732.00
2023-03-11T01:22:54.475Z,96749.22
2023-03-11T01:25:23.723Z,96743.44
2023-03-11T01:27:51.412Z,96743.75
2023-03-11T01:30:22.776Z,96748.75
2023-03-11T01:32:52.346Z,96760.00
2023-03-11T01:35:23.153Z,96755.09
2023-03-11T01:37:50.612Z,96758.78
2023-03-11T01:40:29.122Z,96756.69
2023-03-11T01:42:58.590Z,96764.44
2023-03-11T01:45:50.249Z,96769.75
2023-03-11T01:48:20.497Z,96763.09
2023-03-11T01:50:50.544Z,96755.63
2023-03-11T01:53:18.813Z,96766.97
2023-03-11T01:55:47.783Z,96762.22
2023-03-11T01:58:39.818Z,96753.38
2023-03-11T02:01:07.782Z,96746.19
2023-03-11T02:03:39.906Z,96746.03
2023-03-11T02:06:15.205Z,96757.66
2023-03-11T02:08:43.629Z,96764.00
2023-03-11T02:11:27.613Z,96761.28
2023-03-11T02:13:57.031Z,96770.81
2023-03-11T02:16:26.096Z,96762.66
2023-03-11T02:18:53.736Z,96773.44
2023-03-11T02:21:30.705Z,96788.50
2023-03-11T02:24:10.350Z,96783.97
2023-03-11T02:26:56.792Z,96784.44
2023-03-11T02:29:27.322Z,96783.47
2023-03-11T02:31:57.390Z,96805.41
2023-03-11T02:34:34.918Z,96790.50
2023-03-11T02:37:10.035Z,96775.00
2023-03-11T02:39:43.083Z,96787.41
2023-03-11T02:42:14.532Z,96773.97
2023-03-11T02:44:47.295Z,96778.19
2023-03-11T02:47:15.590Z,96773.59
2023-03-11T02:49:43.406Z,96774.94
2023-03-11T02:52:12.914Z,96773.88
2023-03-11T02:54:40.174Z,96782.69
2023-03-11T02:57:08.188Z,96784.53
2023-03-11T02:59:35.833Z,96793.13
2023-03-11T03:02:03.646Z,96796.16
2023-03-11T03:04:31.635Z,96795.06
2023-03-11T03:07:00.089Z,96799.63
2023-03-11T03:09:27.096Z,96803.38
2023-03-11T03:11:54.457Z,96812.88
2023-03-11T03:14:21.963Z,96808.28
2023-03-11T03:16:49.905Z,96804.72
2023-03-11T03:19:18.885Z,96809.72
2023-03-11T03:21:45.869Z,96810.69
2023-03-11T03:24:13.331Z,96823.72
2023-03-11T03:26:40.258Z,96828.81
2023-03-11T03:29:08.462Z,96825.97
2023-03-11T03:31:35.842Z,96833.72
2023-03-11T03:34:03.446Z,96832.66
2023-03-11T03:36:30.730Z,96836.94
2023-03-11T03:39:02.185Z,96845.66
2023-03-11T03:41:33.110Z,96840.13
2023-03-11T03:44:00.784Z,96836.63
2023-03-11T03:46:28.624Z,96837.63
2023-03-11T03:48:58.090Z,96843.88
2023-03-11T03:51:26.029Z,96828.50
2023-03-11T03:54:04.849Z,96837.00
2023-03-11T03:56:32.291Z,96845.50
2023-03-11T03:59:00.752Z,96859.13
2023-03-11T04:01:34.068Z,96861.03
2023-03-11T04:04:01.301Z,96863.31
2023-03-11T04:06:29.403Z,96863.44
2023-03-11T04:09:00.959Z,96871.34
2023-03-11T04:11:32.771Z,96868.91
2023-03-11T04:14:02.513Z,96858.13
2023-03-11T04:16:30.655Z,96873.22
2023-03-11T04:19:02.590Z,96872.53
2023-03-11T04:21:30.426Z,96879.69
2023-03-11T04:23:57.908Z,96883.38
2023-03-11T04:26:30.010Z,96884.78
2023-03-11T04:28:57.088Z,96879.38
2023-03-11T04:31:26.234Z,96880.75
2023-03-11T04:33:54.543Z,96876.41
2023-03-11T04:36:21.685Z,96886.00
2023-03-11T04:38:49.428Z,96876.25
2023-03-11T04:41:17.564Z,96882.59
2023-03-11T04:43:45.454Z,96882.53
2023-03-11T04:46:13.001Z,96884.66
2023-03-11T04:48:41.717Z,96883.06
2023-03-11T04:51:09.976Z,96875.44
2023-03-11T04:53:37.476Z,96884.00
2023-03-11T04:56:05.074Z,96878.41
2023-03-11T04:58:32.549Z,96883.16
2023-03-11T05:00:59.900Z,96883.56
2023-03-11T05:03:27.122Z,96883.94
2023-03-11T05:05:56.818Z,96878.78
2023-03-11T05:08:24.339Z,96874.13
2023-03-11T05:10:53.074Z,96883.13
2023-03-11T05:13:21.877Z,96881.34
2023-03-11T05:15:50.353Z,96888.28
2023-03-11T05:18:17.928Z,96891.91
2023-03-11T05:20:46.296Z,96897.50
2023-03-11T05:23:14.870Z,96900.63
2023-03-11T05:25:42.143Z,96896.50
2023-03-11T05:28:10.336Z,96907.72
2023-03-11T05:30:42.680Z,96907.13
2023-03-11T05:33:09.755Z,96910.94
2023-03-11T05:35:37.430Z,96919.03
2023-03-11T05:38:04.655Z,96910.72
2023-03-11T05:40:32.002Z,96916.03
2023-03-11T05:42:59.314Z,96916.19
2023-03-11T05:45:29.389Z,96908.94
2023-03-11T05:47:59.050Z,96912.72
2023-03-11T05:50:26.693Z,96913.53
2023-03-11T05:52:54.516Z,96917.09
2023-03-11T05:55:22.878Z,96927.66
2023-03-11T05:57:52.310Z,96927.09
2023-03-11T06:00:20.640Z,96926.75
2023-03-11T06:02:51.464Z,96938.34
2023-03-11T06:05:20.057Z,96939.94
2023-03-11T06:07:49.119Z,96943.91
2023-03-11T06:10:16.738Z,96942.63
2023-03-11T06:12:43.666Z,96944.75
2023-03-11T06:15:30.889Z,96944.94
2023-03-11T06:17:59.652Z,96948.03
2023-03-11T06:20:28.024Z,96941.09
2023-03-11T06:22:55.768Z,96944.34
2023-03-11T06:25:24.359Z,96948.38
2023-03-11T06:27:53.882Z,96955.34
2023-03-11T06:30:24.453Z,96954.56
2023-03-11T06:33:01.803Z,96960.72
2023-03-11T06:35:28.889Z,96953.47
2023-03-11T06:37:56.052Z,96952.38
2023-03-11T06:40:23.575Z,96952.50
2023-03-11T06:42:51.023Z,96960.09
2023-03-11T06:45:20.816Z,96970.03
2023-03-11T06:47:49.270Z,96978.72
2023-03-11T06:50:17.027Z,96978.34
2023-03-11T06:52:44.479Z,96986.16
2023-03-11T06:55:11.554Z,96989.63
2023-03-11T06:57:38.997Z,96998.59
2023-03-11T07:00:13.601Z,97001.81
2023-03-11T07:02:44.938Z,97007.00
2023-03-11T07:05:13.606Z,96998.63
2023-03-11T07:07:41.139Z,97005.78
2023-03-11T07:10:08.874Z,97007.31
2023-03-11T07:12:36.509Z,97014.56
2023-03-11T07:15:04.117Z,97023.97
2023-03-11T07:17:32.203Z,97021.28
2023-03-11T07:19:59.709Z,97019.09
2023-03-11T07:22:27.308Z,97024.38
2023-03-11T07:24:54.672Z,97014.22
2023-03-11T07:27:22.511Z,97022.56
2023-03-11T07:29:49.878Z,97023.72
2023-03-11T07:32:17.985Z,97019.97
2023-03-11T07:34:45.125Z,97038.25
2023-03-11T07:37:12.471Z,97037.53
2023-03-11T07:39:40.096Z,97041.38
2023-03-11T07:42:07.615Z,97046.03
2023-03-11T07:44:36.199Z,97044.63
2023-03-11T07:47:05.728Z,97042.22
2023-03-11T07:49:33.647Z,97056.16
2023-03-11T07:52:01.000Z,97053.56
2023-03-11T07:54:28.438Z,97062.19
2023-03-11T07:56:55.952Z,97058.31
2023-03-11T07:59:23.136Z,97064.44
2023-03-11T08:01:50.727Z,97055.44
2023-03-11T08:04:18.370Z,97063.72
2023-03-11T08:06:47.480Z,97061.78
2023-03-11T08:09:15.191Z,97070.91
2023-03-11T08:11:42.785Z,97073.34
2023-03-11T08:14:10.305Z,97067.28
2023-03-11T08:16:38.998Z,97080.28
2023-03-11T08:19:06.359Z,97077.09
2023-03-11T08:21:33.777Z,97088.22
2023-03-11T08:24:02.666Z,97087.88
2023-03-11T08:26:31.416Z,97093.22
2023-03-11T08:28:59.573Z,97092.50
2023-03-11T08:31:30.562Z,97093.69
2023-03-11T08:34:02.539Z,97093.78
2023-03-11T08:36:30.195Z,97108.22
2023-03-11T08:38:57.302Z,97100.41
2023-03-11T08:41:25.055Z,97097.88
2023-03-11T08:43:52.655Z,97108.06
2023-03-11T08:46:32.455Z,97112.66
2023-03-11T08:49:01.479Z,97106.72
2023-03-11T08:51:30.754Z,97112.97
2023-03-11T08:53:58.750Z,97113.75
2023-03-11T08:56:26.426Z,97111.16
2023-03-11T08:58:53.928Z,97111.31
2023-03-11T09:01:21.051Z,97113.47
2023-03-11T09:03:48.199Z,97107.50
2023-03-11T09:06:17.644Z,97117.66
2023-03-11T09:08:46.419Z,97112.22
2023-03-11T09:11:16.676Z,97119.03
2023-03-11T09:13:44.964Z,97112.47
2023-03-11T09:16:19.382Z,97106.81
2023-03-11T09:18:47.137Z,97113.09
2023-03-11T09:21:14.306Z,97111.78
2023-03-11T09:23:44.153Z,97118.03
2023-03-11T09:26:12.478Z,97119.00
2023-03-11T09:28:41.174Z,97131.56
2023-03-11T09:31:08.586Z,97130.91
2023-03-11T09:33:40.848Z,97132.44
2023-03-11T09:36:15.417Z,97131.91
2023-03-11T09:38:43.493Z,97128.91
2023-03-11T09:41:26.833Z,97131.25
2023-03-11T09:44:39.135Z,97138.19
2023-03-11T09:47:57.100Z,97131.34
2023-03-11T09:51:08.310Z,97129.34
2023-03-11T09:53:44.609Z,97138.41
2023-03-11T09:56:18.502Z,97140.91
2023-03-11T09:58:53.026Z,97139.66
2023-03-11T10:01:31.448Z,97137.66
2023-03-11T10:04:40.094Z,97128.38
2023-03-11T10:07:21.622Z,97129.66
2023-03-11T10:09:56.689Z,97132.91
2023-03-11T10:13:01.115Z,97134.13
2023-03-11T10:15:59.455Z,97133.44
2023-03-11T10:18:29.710Z,97129.38
2023-03-11T10:21:36.145Z,97127.97
2023-03-11T10:24:43.703Z,97127.88
2023-03-11T10:27:22.847Z,97133.50
2023-03-11T10:30:21.793Z,97130.78
2023-03-11T10:32:59.514Z,97126.22
2023-03-11T10:35:50.171Z,97133.41
2023-03-11T10:38:29.856Z,97135.00
2023-03-11T10:41:04.050Z,97129.16
2023-03-11T10:43:41.908Z,97124.13
2023-03-11T10:46:21.232Z,97115.00
2023-03-11T10:48:49.007Z,97123.28
2023-03-11T10:51:22.963Z,97131.56
2023-03-11T10:53:56.747Z,97133.38
2023-03-11T10:56:42.200Z,97127.59
2023-03-11T10:59:47.506Z,97122.22
2023-03-11T11:02:26.835Z,97123.78
2023-03-11T11:05:23.051Z,97125.28
2023-03-11T11:07:55.105Z,97115.47
2023-03-11T11:10:25.458Z,97118.22
2023-03-11T11:13:17.640Z,97127.91
2023-03-11T11:16:18.924Z,97135.59
2023-03-11T11:19:05.467Z,97138.47
2023-03-11T11:21:37.292Z,97146.53
2023-03-11T11:24:08.609Z,97147.41
2023-03-11T11:26:36.014Z,97141.97
2023-03-11T11:29:13.065Z,97145.41
2023-03-11T11:31:46.220Z,97145.03
2023-03-11T11:34:30.085Z,97150.16
2023-03-11T11:36:59.872Z,97144.41
2023-03-11T11:39:30.976Z,97137.47
2023-03-11T11:41:59.186Z,97139.72
2023-03-11T11:44:33.511Z,97135.59
2023-03-11T11:47:19.214Z,97137.72
2023-03-11T11:50:11.358Z,97139.19
2023-03-11T11:52:45.239Z,97137.47
2023-03-11T11:55:27.231Z,97137.25
2023-03-11T11:57:54.711Z,97136.88
2023-03-11T12:00:25.276Z,97124.03
2023-03-11T12:03:13.786Z,97129.88
2023-03-11T12:06:07.566Z,97117.84
2023-03-11T12:08:51.127Z,97115.09
2023-03-11T12:11:51.715Z,97115.03
2023-03-11T12:14:23.028Z,97115.50
2023-03-11T12:16:58.438Z,97110.25
2023-03-11T12:19:47.001Z,97082.59
2023-03-11T12:22:44.288Z,97072.84
2023-03-11T12:25:43.480Z,97073.66
2023-03-11T12:28:24.819Z,97089.31
2023-03-11T12:30:58.359Z,97100.41
2023-03-11T12:33:35.172Z,97092.56
2023-03-11T12:36:03.627Z,97094.28
2023-03-11T12:38:38.933Z,97100.88
2023-03-11T12:41:31.838Z,97092.75
2023-03-11T12:44:05.506Z,97071.53
2023-03-11T12:46:54.768Z,97072.06
2023-03-11T12:49:33.400Z,97071.06
2023-03-11T12:52:12.537Z,97067.34
2023-03-11T12:54:44.168Z,97070.75
2023-03-11T12:57:17.444Z,97078.44
2023-03-11T13:00:32.777Z,97066.69
2023-03-11T13:03:27.253Z,97072.16
2023-03-11T13:06:41.208Z,97060.28
2023-03-11T13:09:16.013Z,97065.44
2023-03-11T13:11:48.409Z,97068.81
2023-03-11T13:14:18.491Z,97069.34
2023-03-11T13:16:46.461Z,97083.16
2023-03-11T13:19:35.594Z,97079.19
2023-03-11T13:22:04.812Z,97060.34
2023-03-11T13:24:32.101Z,97063.38
2023-03-11T13:26:59.649Z,97062.56
2023-03-11T13:30:02.118Z,97048.63
2023-03-11T13:32:57.330Z,97056.69
2023-03-11T13:36:00.388Z,97060.56
2023-03-11T13:39:03.848Z,97068.50
2023-03-11T13:41:35.742Z,97078.88
2023-03-11T13:44:29.125Z,97071.13
2023-03-11T13:47:05.864Z,97049.50
2023-03-11T13:49:41.303Z,97048.34
2023-03-11T13:52:16.442Z,97054.13
2023-03-11T13:55:21.813Z,97074.66
2023-03-11T13:57:54.999Z,97077.13
2023-03-11T14:00:25.733Z,97080.31
2023-03-11T14:03:05.229Z,97088.88
2023-03-11T14:05:37.458Z,97069.75
2023-03-11T14:08:27.438Z,97078.88
2023-03-11T14:11:01.245Z,97080.13
2023-03-11T14:13:32.804Z,97082.97
2023-03-11T14:16:09.915Z,97092.72
2023-03-11T14:18:49.697Z,97086.19
2023-03-11T14:21:22.594Z,97098.25
2023-03-11T14:23:54.140Z,97108.97
2023-03-11T14:26:31.381Z,97110.56
2023-03-11T14:29:02.468Z,97109.09
2023-03-11T14:31:36.844Z,97103.84
2023-03-11T14:34:15.115Z,97098.56
2023-03-11T14:36:52.416Z,97098.47
2023-03-11T14:39:34.725Z,97085.56
2023-03-11T14:42:29.448Z,97089.66
2023-03-11T14:45:08.210Z,97091.38
2023-03-11T14:47:43.850Z,97089.03
2023-03-11T14:50:26.231Z,97086.38
2023-03-11T14:52:58.815Z,97081.47
2023-03-11T14:55:30.324Z,97086.91
2023-03-11T14:58:07.081Z,97078.06
2023-03-11T15:00:37.346Z,97079.38
2023-03-11T15:03:27.042Z,97088.50
2023-03-11T15:06:04.062Z,97088.00
2023-03-11T15:08:38.192Z,97090.22
2023-03-11T15:11:11.451Z,97093.47
2023-03-11T15:13:42.144Z,97098.38
2023-03-11T15:16:33.404Z,97092.00
2023-03-11T15:19:20.936Z,97103.00
2023-03-11T15:21:50.721Z,97108.75
2023-03-11T15:24:27.530Z,97113.63
2023-03-11T15:27:08.352Z,97113.22
2023-03-11T15:29:36.391Z,97126.00
2023-03-11T15:32:31.329Z,97118.94
2023-03-11T15:35:11.154Z,97123.19
2023-03-11T15:37:40.466Z,97110.22
2023-03-11T15:40:43.936Z,97121.25
2023-03-11T15:43:15.079Z,97125.81
2023-03-11T15:45:43.350Z,97118.75
2023-03-11T15:48:11.776Z,97121.63
2023-03-11T15:50:55.173Z,97121.00
2023-03-11T15:53:25.091Z,97129.72
2023-03-11T15:56:07.323Z,97146.22
2023-03-11T15:58:37.735Z,97140.09
2023-03-11T16:01:04.809Z,97138.44
2023-03-11T16:03:32.277Z,97145.78
2023-03-11T16:05:59.984Z,97143.38
2023-03-11T16:08:26.960Z,97154.78
2023-03-11T16:10:54.032Z,97153.13
2023-03-11T16:13:21.404Z,97150.91
2023-03-11T16:15:48.505Z,97149.50
2023-03-11T16:18:15.843Z,97140.13
2023-03-11T16:20:46.830Z,97140.94
2023-03-11T16:23:34.077Z,97123.38
2023-03-11T16:26:11.830Z,97134.81
2023-03-11T16:28:39.403Z,97140.31
2023-03-11T16:31:09.484Z,97148.06
2023-03-11T16:33:37.321Z,97151.31
2023-03-11T16:36:05.508Z,97149.28
2023-03-11T16:38:44.351Z,97151.91
2023-03-11T16:41:11.746Z,97155.19
2023-03-11T16:43:39.142Z,97154.75
2023-03-11T16:46:06.629Z,97152.53
2023-03-11T16:48:34.664Z,97156.03
2023-03-11T16:51:02.233Z,97159.69
2023-03-11T16:53:29.371Z,97162.53
2023-03-11T16:55:56.701Z,97164.94
2023-03-11T16:58:24.121Z,97166.19
2023-03-11T17:00:51.557Z,97169.47
2023-03-11T17:03:21.877Z,97168.25
2023-03-11T17:05:49.738Z,97181.25
2023-03-11T17:08:18.287Z,97188.19
2023-03-11T17:10:46.082Z,97189.81
2023-03-11T17:13:14.600Z,97194.28
2023-03-11T17:15:44.407Z,97194.72
2023-03-11T17:18:12.517Z,97196.75
2023-03-11T17:20:43.654Z,97207.56
2023-03-11T17:23:10.957Z,97207.56
2023-03-11T17:25:41.725Z,97207.56
2023-03-11T17:28:09.518Z,97217.13
2023-03-11T17:30:41.144Z,97223.03
2023-03-11T17:33:08.176Z,97225.31
2023-03-11T17:35:35.564Z,97233.84
2023-03-11T17:38:03.216Z,97228.56
2023-03-11T17:40:31.797Z,97235.09
2023-03-11T17:42:59.250Z,97236.25
2023-03-11T17:45:26.345Z,97236.69
2023-03-11T17:47:53.308Z,97242.81
2023-03-11T17:50:20.356Z,97248.09
2023-03-11T17:52:48.285Z,97252.63
2023-03-11T17:55:15.630Z,97250.97
2023-03-11T17:57:45.866Z,97249.75
2023-03-11T18:00:14.952Z,97257.50
2023-03-11T18:02:42.509Z,97253.81
2023-03-11T18:05:10.099Z,97255.03
2023-03-11T18:07:40.845Z,97254.22
2023-03-11T18:10:10.221Z,97262.78
2023-03-11T18:12:38.231Z,97264.22
2023-03-11T18:15:14.239Z,97276.19
2023-03-11T18:17:41.435Z,97275.25
2023-03-11T18:20:09.230Z,97285.47
2023-03-11T18:22:38.613Z,97296.84
2023-03-11T18:25:09.871Z,97291.22
2023-03-11T18:27:40.123Z,97289.13
2023-03-11T18:30:08.681Z,97292.06
2023-03-11T18:32:35.928Z,97300.59
2023-03-11T18:35:03.188Z,97302.28
2023-03-11T18:37:31.963Z,97301.69
2023-03-11T18:39:59.006Z,97302.66
2023-03-11T18:42:26.326Z,97303.34
2023-03-11T18:44:53.440Z,97309.84
2023-03-11T18:47:20.768Z,97310.66
2023-03-11T18:49:48.148Z,97309.19
2023-03-11T18:52:15.286Z,97309.31
2023-03-11T18:54:42.804Z,97309.28
2023-03-11T18:57:10.329Z,97313.25
2023-03-11T18:59:37.661Z,97303.88
2023-03-11T19:02:04.632Z,97310.78
2023-03-11T19:04:32.984Z,97310.69
2023-03-11T19:06:59.974Z,97311.97
2023-03-11T19:09:26.967Z,97308.47
2023-03-11T19:11:53.955Z,97309.59
2023-03-11T19:14:20.925Z,97319.03
2023-03-11T19:16:48.232Z,97315.19
2023-03-11T19:19:15.836Z,97316.38
2023-03-11T19:21:43.745Z,97317.56
2023-03-11T19:24:10.916Z,97322.28
2023-03-11T19:26:45.191Z,97325.72
2023-03-11T19:29:14.116Z,97326.84
2023-03-11T19:31:43.328Z,97329.31
2023-03-11T19:34:10.839Z,97333.78
2023-03-11T19:36:39.212Z,97339.81
2023-03-11T19:39:06.625Z,97338.94
2023-03-11T19:41:34.118Z,97337.66
2023-03-11T19:44:03.921Z,97343.00
2023-03-11T19:46:34.408Z,97341.38
2023-03-11T19:49:02.561Z,97337.31
2023-03-11T19:51:38.886Z,97341.78
2023-03-11T19:54:16.096Z,97343.78
2023-03-11T19:56:43.724Z,97340.75
2023-03-11T19:59:10.779Z,97346.94
2023-03-11T20:01:37.974Z,97347.78
2023-03-11T20:04:06.444Z,97358.25
2023-03-11T20:06:34.219Z,97358.75
2023-03-11T20:09:01.442Z,97364.19
2023-03-11T20:11:28.395Z,97363.63
2023-03-11T20:13:56.595Z,97373.56
2023-03-11T20:16:23.662Z,97368.66
2023-03-11T20:18:51.754Z,97367.34
2023-03-11T20:21:19.731Z,97373.91
2023-03-11T20:23:48.788Z,97369.28
2023-03-11T20:26:18.980Z,97374.19
2023-03-11T20:28:46.227Z,97379.13
2023-03-11T20:31:20.994Z,97388.28
2023-03-11T20:33:50.500Z,97384.41
2023-03-11T20:36:21.184Z,97387.13
2023-03-11T20:38:50.229Z,97386.78
2023-03-11T20:41:18.374Z,97385.88
2023-03-11T20:43:45.927Z,97397.06
2023-03-11T20:46:13.614Z,97402.44
2023-03-11T20:48:41.237Z,97406.97
2023-03-11T20:51:20.540Z,97397.97
2023-03-11T20:53:49.002Z,97409.78
2023-03-11T20:56:20.959Z,97413.34
2023-03-11T20:58:50.941Z,97399.34
2023-03-11T21:01:23.016Z,97412.63
2023-03-11T21:03:53.804Z,97410.63
2023-03-11T21:06:24.733Z,97413.59
2023-03-11T21:08:54.680Z,97415.34
2023-03-11T21:11:22.918Z,97419.16
2023-03-11T21:13:50.719Z,97415.72
2023-03-11T21:16:18.227Z,97419.59
2023-03-11T21:18:48.675Z,97424.84
2023-03-11T21:21:18.582Z,97425.13
2023-03-11T21:23:46.951Z,97425.34
2023-03-11T21:26:16.007Z,97428.50
2023-03-11T21:28:47.231Z,97428.84
2023-03-11T21:31:27.852Z,97425.41
2023-03-11T21:33:58.636Z,97435.41
2023-03-11T21:36:26.419Z,97437.53
2023-03-11T21:38:54.006Z,97429.75
2023-03-11T21:41:25.256Z,97433.19
2023-03-11T21:43:56.908Z,97435.72
2023-03-11T21:46:31.270Z,97432.38
2023-03-11T21:48:59.943Z,97441.72
2023-03-11T21:51:27.943Z,97442.25
2023-03-11T21:53:54.998Z,97436.13
2023-03-11T21:56:22.655Z,97438.44
2023-03-11T21:58:50.271Z,97441.53
2023-03-11T22:01:17.382Z,97430.88
2023-03-11T22:03:44.742Z,97434.84
2023-03-11T22:06:13.065Z,97435.00
2023-03-11T22:08:42.426Z,97425.59
2023-03-11T22:11:17.404Z,97436.63
2023-03-11T22:13:50.927Z,97425.28
2023-03-11T22:16:19.045Z,97424.75
2023-03-11T22:18:46.878Z,97423.34
2023-03-11T22:21:15.926Z,97421.84
2023-03-11T22:23:44.580Z,97424.50
2023-03-11T22:26:11.954Z,97436.75
2023-03-11T22:28:39.729Z,97432.47
2023-03-11T22:31:13.038Z,97432.22
2023-03-11T22:33:40.688Z,97440.53
2023-03-11T22:36:09.372Z,97433.97
2023-03-11T22:38:37.071Z,97438.31
2023-03-11T22:41:07.455Z,97440.09
2023-03-11T22:43:35.837Z,97439.97
2023-03-11T22:46:04.602Z,97438.28
2023-03-11T22:48:32.982Z,97433.47
2023-03-11T22:51:00.395Z,97437.22
2023-03-11T22:53:27.489Z,97436.91
2023-03-11T22:55:54.437Z,97431.81
2023-03-11T22:58:21.596Z,97439.09
2023-03-11T23:00:48.751Z,97430.09
2023-03-11T23:03:16.000Z,97426.91
2023-03-11T23:05:43.322Z,97433.84
2023-03-11T23:08:15.089Z,97444.59
2023-03-11T23:10:47.392Z,97440.63
2023-03-11T23:13:14.624Z,97447.78
2023-03-11T23:15:46.549Z,97442.34
2023-03-11T23:18:15.898Z,97446.66
2023-03-11T23:20:43.834Z,97460.34
2023-03-11T23:23:12.374Z,97458.50
2023-03-11T23:25:41.065Z,97464.41
2023-03-11T23:28:08.594Z,97462.94
2023-03-11T23:30:36.153Z,97455.06
2023-03-11T23:33:03.608Z,97458.88
2023-03-11T23:35:32.178Z,97457.53
2023-03-11T23:38:00.034Z,97456.88
2023-03-11T23:40:27.120Z,97463.31
2023-03-11T23:42:54.519Z,97454.59
2023-03-11T23:45:21.927Z,97451.53
2023-03-11T23:47:49.312Z,97452.81
2023-03-11T23:50:16.852Z,97458.56
2023-03-11T23:52:44.423Z,97457.44
2023-03-11T23:55:12.068Z,97452.03
2023-03-11T23:57:39.255Z,97458.63
